createdAt,value
2018-01-07T00:00:53.209Z,17.50
2018-01-07T00:01:53.222Z,17.80
2018-01-07T00:02:53.245Z,17.60
2018-01-07T00:03:53.261Z,17.90
2018-01-07T00:04:53.282Z,17.10
2018-01-07T00:05:53.294Z,18.40
2018-01-07T00:06:53.317Z,18.10
2018-01-07T00:07:53.337Z,17.10
2018-01-07T00:08:53.398Z,17.30
2018-01-07T00:09:53.373Z,17.40
2018-01-07T00:10:53.391Z,18.00
2018-01-07T00:11:53.410Z,17.40
2018-01-07T00:12:53.428Z,18.70
2018-01-07T00:13:53.446Z,17.70
2018-01-07T00:14:53.458Z,17.90
2018-01-07T00:15:53.482Z,17.00
2018-01-07T00:16:53.494Z,19.00
2018-01-07T00:17:53.520Z,18.00
2018-01-07T00:18:53.531Z,17.30
2018-01-07T00:19:53.555Z,17.90
2018-01-07T00:20:53.568Z,17.60
2018-01-07T00:21:53.598Z,18.70
2018-01-07T00:22:53.604Z,17.80
2018-01-07T00:23:53.629Z,17.90
2018-01-07T00:24:53.645Z,17.30
2018-01-07T00:25:53.659Z,18.30
2018-01-07T00:26:53.678Z,18.30
2018-01-07T00:27:53.695Z,17.70
2018-01-07T00:28:53.718Z,18.90
2018-01-07T00:29:53.731Z,17.90
2018-01-07T00:30:53.756Z,16.80
2018-01-07T00:31:53.769Z,17.00
2018-01-07T00:32:53.792Z,17.80
2018-01-07T00:33:53.809Z,17.20
2018-01-07T00:34:53.824Z,17.80
2018-01-07T00:35:53.841Z,17.00
2018-01-07T00:36:53.864Z,17.10
2018-01-07T00:37:53.884Z,18.00
2018-01-07T00:38:53.895Z,17.20
2018-01-07T00:39:53.919Z,17.80
2018-01-07T00:40:53.932Z,16.70
2018-01-07T00:41:53.975Z,16.80
2018-01-07T00:42:53.968Z,18.10
2018-01-07T00:43:53.992Z,17.20
2018-01-07T00:44:54.010Z,17.20
2018-01-07T00:45:54.022Z,18.00
2018-01-07T00:46:54.047Z,17.40
2018-01-07T00:47:54.065Z,17.00
2018-01-07T00:48:54.077Z,18.10
2018-01-07T00:49:54.097Z,16.40
2018-01-07T00:50:54.120Z,17.80
2018-01-07T00:51:54.140Z,17.90
2018-01-07T00:52:54.150Z,17.80
2018-01-07T00:53:54.168Z,16.50
2018-01-07T00:54:54.193Z,16.80
2018-01-07T00:55:54.205Z,17.10
2018-01-07T00:56:54.231Z,16.80
2018-01-07T00:57:54.242Z,17.00
2018-01-07T00:58:54.260Z,16.30
2018-01-07T00:59:54.278Z,16.30
2018-01-07T01:00:54.295Z,16.70
2018-01-07T01:01:54.315Z,16.80
2018-01-07T01:02:54.338Z,16.30
2018-01-07T01:03:54.356Z,17.40
2018-01-07T01:04:54.368Z,16.40
2018-01-07T01:05:54.392Z,16.50
2018-01-07T01:06:54.406Z,16.60
2018-01-07T01:07:54.429Z,18.30
2018-01-07T01:08:54.441Z,17.30
2018-01-07T01:09:54.465Z,16.50
2018-01-07T01:10:54.478Z,17.30
2018-01-07T01:11:54.503Z,16.80
2018-01-07T01:12:54.519Z,16.60
2018-01-07T01:13:54.539Z,17.20
2018-01-07T01:14:54.556Z,16.50
2018-01-07T01:15:54.569Z,16.50
2018-01-07T01:16:54.593Z,17.10
2018-01-07T01:17:54.611Z,16.60
2018-01-07T01:18:54.624Z,15.80
2018-01-07T01:19:54.648Z,16.40
2018-01-07T01:20:54.660Z,16.40
2018-01-07T01:21:54.679Z,16.20
2018-01-07T01:22:54.702Z,16.70
2018-01-07T01:23:54.720Z,15.40
2018-01-07T01:24:54.734Z,16.60
2018-01-07T01:25:54.750Z,15.70
2018-01-07T01:26:54.775Z,15.60
2018-01-07T01:27:54.794Z,16.30
2018-01-07T01:28:54.810Z,15.70
2018-01-07T01:29:54.823Z,15.90
2018-01-07T01:30:54.843Z,15.00
2018-01-07T01:31:54.861Z,15.00
2018-01-07T01:32:54.884Z,15.30
2018-01-07T01:33:54.896Z,15.50
2018-01-07T01:34:54.921Z,14.80
2018-01-07T01:35:54.940Z,14.20
2018-01-07T01:36:54.951Z,13.70
2018-01-07T01:37:54.970Z,14.30
2018-01-07T01:38:54.995Z,13.90
2018-01-07T01:39:55.012Z,13.70
2018-01-07T01:40:55.025Z,14.40
2018-01-07T01:41:55.042Z,14.90
2018-01-07T01:42:55.067Z,13.30
2018-01-07T01:43:55.085Z,14.10
2018-01-07T01:44:55.096Z,14.20
2018-01-07T01:45:55.115Z,14.70
2018-01-07T01:46:55.134Z,13.90
2018-01-07T01:47:55.158Z,13.00
2018-01-07T01:48:55.175Z,13.80
2018-01-07T01:49:55.188Z,13.50
2018-01-07T01:50:55.212Z,13.30
2018-01-07T01:51:55.225Z,13.50
2018-01-07T01:52:55.248Z,13.10
2018-01-07T01:53:55.266Z,12.70
2018-01-07T01:54:55.279Z,12.80
2018-01-07T01:55:55.304Z,13.20
2018-01-07T01:56:55.316Z,12.60
2018-01-07T01:57:55.339Z,12.40
2018-01-07T01:58:55.351Z,12.20
2018-01-07T01:59:55.376Z,11.30
2018-01-07T02:00:55.388Z,11.80
2018-01-07T02:01:55.408Z,11.60
2018-01-07T02:02:55.430Z,11.80
2018-01-07T02:03:55.449Z,11.30
2018-01-07T02:04:55.461Z,11.30
2018-01-07T02:05:55.479Z,12.20
2018-01-07T02:06:55.503Z,11.90
2018-01-07T02:07:55.516Z,12.30
2018-01-07T02:08:55.540Z,11.50
2018-01-07T02:09:55.557Z,12.00
2018-01-07T02:10:55.570Z,11.80
2018-01-07T02:11:55.590Z,11.50
2018-01-07T02:12:55.610Z,12.30
2018-01-07T02:13:55.630Z,11.30
2018-01-07T02:14:55.642Z,11.20
2018-01-07T02:15:55.667Z,11.60
2018-01-07T02:16:55.684Z,11.40
2018-01-07T02:17:55.698Z,11.70
2018-01-07T02:18:55.725Z,11.80
2018-01-07T02:19:55.739Z,11.80
2018-01-07T02:20:55.752Z,10.50
2018-01-07T02:21:55.770Z,11.30
2018-01-07T02:22:55.787Z,11.00
2018-01-07T02:23:55.811Z,11.50
2018-01-07T02:24:55.823Z,11.90
2018-01-07T02:25:55.841Z,11.70
2018-01-07T02:26:55.866Z,10.90
2018-01-07T02:27:55.884Z,11.80
2018-01-07T02:28:55.895Z,10.60
2018-01-07T02:29:55.914Z,10.80
2018-01-07T02:30:55.938Z,10.50
2018-01-07T02:31:55.951Z,10.90
2018-01-07T02:32:55.971Z,9.70
2018-01-07T02:33:55.992Z,9.60
2018-01-07T02:34:56.010Z,10.00
2018-01-07T02:35:56.024Z,9.80
2018-01-07T02:36:56.047Z,10.00
2018-01-07T02:37:56.059Z,8.90
2018-01-07T02:38:56.083Z,8.70
2018-01-07T02:39:56.103Z,9.60
2018-01-07T02:40:56.113Z,8.30
2018-01-07T02:41:56.137Z,9.10
2018-01-07T02:42:56.149Z,9.50
2018-01-07T02:43:56.174Z,9.00
2018-01-07T02:44:56.185Z,8.90
2018-01-07T02:45:56.211Z,8.80
2018-01-07T02:46:56.238Z,8.40
2018-01-07T02:47:56.248Z,8.40
2018-01-07T02:48:56.262Z,9.40
2018-01-07T02:49:56.277Z,8.70
2018-01-07T02:50:56.297Z,8.20
2018-01-07T02:51:56.312Z,8.20
2018-01-07T02:52:56.330Z,8.30
2018-01-07T02:53:56.355Z,8.70
2018-01-07T02:54:56.368Z,8.30
2018-01-07T02:55:56.386Z,7.70
2018-01-07T02:56:56.408Z,8.00
2018-01-07T02:57:56.422Z,8.00
2018-01-07T02:58:56.445Z,7.30
2018-01-07T02:59:56.458Z,7.60
2018-01-07T03:00:56.481Z,7.40
2018-01-07T03:01:56.493Z,7.30
2018-01-07T03:02:56.518Z,8.20
2018-01-07T03:03:56.531Z,7.50
2018-01-07T03:04:56.553Z,7.90
2018-01-07T03:05:56.571Z,8.10
2018-01-07T03:06:56.590Z,7.30
2018-01-07T03:07:56.615Z,7.50
2018-01-07T03:08:56.624Z,7.20
2018-01-07T03:09:56.637Z,7.30
2018-01-07T03:10:56.661Z,6.70
2018-01-07T03:11:56.674Z,7.00
2018-01-07T03:12:56.697Z,7.00
2018-01-07T03:13:56.715Z,7.50
2018-01-07T03:14:56.728Z,7.30
2018-01-07T03:15:56.746Z,7.50
2018-01-07T03:16:56.768Z,7.20
2018-01-07T03:17:56.787Z,7.70
2018-01-07T03:18:56.799Z,7.60
2018-01-07T03:19:56.817Z,7.40
2018-01-07T03:20:56.835Z,7.00
2018-01-07T03:21:56.859Z,6.70
2018-01-07T03:22:56.876Z,7.30
2018-01-07T03:23:56.890Z,7.00
2018-01-07T03:24:56.913Z,7.60
2018-01-07T03:25:56.924Z,7.30
2018-01-07T03:26:56.953Z,7.30
2018-01-07T03:27:56.966Z,6.90
2018-01-07T03:28:56.979Z,7.70
2018-01-07T03:29:56.996Z,7.40
2018-01-07T03:30:57.021Z,7.10
2018-01-07T03:31:57.038Z,6.80
2018-01-07T03:32:57.050Z,10.90
2018-01-07T03:33:57.067Z,7.00
2018-01-07T03:34:57.092Z,6.80
2018-01-07T03:35:57.109Z,6.80
2018-01-07T03:36:57.120Z,7.50
2018-01-07T03:37:57.138Z,7.00
2018-01-07T03:38:57.158Z,7.40
2018-01-07T03:39:57.175Z,6.70
2018-01-07T03:40:57.192Z,7.40
2018-01-07T03:41:57.217Z,7.30
2018-01-07T03:42:57.228Z,6.80
2018-01-07T03:43:57.252Z,6.60
2018-01-07T03:44:57.263Z,7.40
2018-01-07T03:45:57.288Z,6.90
2018-01-07T03:46:57.300Z,7.00
2018-01-07T03:47:57.324Z,7.50
2018-01-07T03:48:57.335Z,7.00
2018-01-07T03:49:57.359Z,7.60
2018-01-07T03:50:57.370Z,8.20
2018-01-07T03:51:57.389Z,7.00
2018-01-07T03:52:57.412Z,7.10
2018-01-07T03:53:57.430Z,8.10
2018-01-07T03:54:57.448Z,7.50
2018-01-07T03:55:57.467Z,8.10
2018-01-07T03:56:57.484Z,7.10
2018-01-07T03:57:57.495Z,7.10
2018-01-07T03:58:57.519Z,8.30
2018-01-07T03:59:57.533Z,7.70
2018-01-07T04:00:57.555Z,7.30
2018-01-07T04:01:57.568Z,7.50
2018-01-07T04:02:57.592Z,7.50
2018-01-07T04:03:57.604Z,7.80
2018-01-07T04:04:57.628Z,7.20
2018-01-07T04:05:57.640Z,7.60
2018-01-07T04:06:57.663Z,7.10
2018-01-07T04:07:57.682Z,8.70
2018-01-07T04:08:57.693Z,7.70
2018-01-07T04:09:57.717Z,7.40
2018-01-07T04:10:57.735Z,8.20
2018-01-07T04:11:57.748Z,7.80
2018-01-07T04:12:57.765Z,7.70
2018-01-07T04:13:57.784Z,8.00
2018-01-07T04:14:57.807Z,8.90
2018-01-07T04:15:57.820Z,7.60
2018-01-07T04:16:57.842Z,7.60
2018-01-07T04:17:57.856Z,7.60
2018-01-07T04:18:57.879Z,8.50
2018-01-07T04:19:57.891Z,7.50
2018-01-07T04:20:57.914Z,8.10
2018-01-07T04:21:57.926Z,8.70
2018-01-07T04:22:57.950Z,7.50
2018-01-07T04:23:57.968Z,7.20
2018-01-07T04:24:57.980Z,7.50
2018-01-07T04:25:58.004Z,7.70
2018-01-07T04:26:58.016Z,7.40
2018-01-07T04:27:58.040Z,8.40
2018-01-07T04:28:58.051Z,7.60
2018-01-07T04:29:58.075Z,7.30
2018-01-07T04:30:58.087Z,8.50
2018-01-07T04:31:58.111Z,7.10
2018-01-07T04:32:58.123Z,8.00
2018-01-07T04:33:58.146Z,8.20
2018-01-07T04:34:58.160Z,7.30
2018-01-07T04:35:58.185Z,7.10
2018-01-07T04:36:58.194Z,7.30
2018-01-07T04:37:58.219Z,7.60
2018-01-07T04:38:58.231Z,8.50
2018-01-07T04:39:58.255Z,9.00
2018-01-07T04:40:58.265Z,7.00
2018-01-07T04:41:58.284Z,8.10
2018-01-07T04:42:58.307Z,7.80
2018-01-07T04:43:58.326Z,7.20
2018-01-07T04:44:58.338Z,7.20
2018-01-07T04:45:58.355Z,7.50
2018-01-07T04:46:58.379Z,8.30
2018-01-07T04:47:58.391Z,8.00
2018-01-07T04:48:58.416Z,8.40
2018-01-07T04:49:58.435Z,7.60
2018-01-07T04:50:58.445Z,8.50
2018-01-07T04:51:58.462Z,9.10
2018-01-07T04:52:58.486Z,7.90
2018-01-07T04:53:58.505Z,9.80
2018-01-07T04:54:58.516Z,8.30
2018-01-07T04:55:58.540Z,7.90
2018-01-07T04:56:58.552Z,8.30
2018-01-07T04:57:58.569Z,8.50
2018-01-07T04:58:58.596Z,9.10
2018-01-07T04:59:58.612Z,9.00
2018-01-07T05:00:58.623Z,8.80
2018-01-07T05:01:58.641Z,8.50
2018-01-07T05:02:58.665Z,8.00
2018-01-07T05:03:58.684Z,7.90
2018-01-07T05:04:58.695Z,7.80
2018-01-07T05:05:58.712Z,8.60
2018-01-07T05:06:58.736Z,7.80
2018-01-07T05:07:58.755Z,8.50
2018-01-07T05:08:58.766Z,8.00
2018-01-07T05:09:58.785Z,8.20
2018-01-07T05:10:58.808Z,8.70
2018-01-07T05:11:58.820Z,8.50
2018-01-07T05:12:58.843Z,8.10
2018-01-07T05:13:58.860Z,9.20
2018-01-07T05:14:58.880Z,8.10
2018-01-07T05:15:58.892Z,8.20
2018-01-07T05:16:58.914Z,8.20
2018-01-07T05:17:58.928Z,8.00
2018-01-07T05:18:58.952Z,8.30
2018-01-07T05:19:58.964Z,7.60
2018-01-07T05:20:58.985Z,8.20
2018-01-07T05:21:58.998Z,8.00
2018-01-07T05:22:59.023Z,7.50
2018-01-07T05:23:59.034Z,8.10
2018-01-07T05:24:59.058Z,8.30
2018-01-07T05:25:59.070Z,8.30
2018-01-07T05:26:59.095Z,7.80
2018-01-07T05:27:59.106Z,8.60
2018-01-07T05:28:59.129Z,6.80
2018-01-07T05:29:59.142Z,7.60
2018-01-07T05:30:59.165Z,6.60
2018-01-07T05:31:59.178Z,6.50
2018-01-07T05:32:59.199Z,6.80
2018-01-07T05:33:59.211Z,7.20
2018-01-07T05:34:59.234Z,6.40
2018-01-07T05:35:59.253Z,7.00
2018-01-07T05:36:59.266Z,6.10
2018-01-07T05:37:59.289Z,6.70
2018-01-07T05:38:59.301Z,5.50
2018-01-07T05:39:59.325Z,5.90
2018-01-07T05:40:59.337Z,5.10
2018-01-07T05:41:59.359Z,5.60
2018-01-07T05:42:59.371Z,5.40
2018-01-07T05:43:59.397Z,5.00
2018-01-07T05:44:59.407Z,4.90
2018-01-07T05:45:59.430Z,4.50
2018-01-07T05:46:59.442Z,5.70
2018-01-07T05:47:59.466Z,3.90
2018-01-07T05:48:59.482Z,4.80
2018-01-07T05:49:59.501Z,5.10
2018-01-07T05:50:59.514Z,3.80
2018-01-07T05:51:59.532Z,4.20
2018-01-07T05:52:59.554Z,4.60
2018-01-07T05:53:59.573Z,4.40
2018-01-07T05:54:59.583Z,4.80
2018-01-07T05:55:59.602Z,5.70
2018-01-07T05:56:59.624Z,4.30
2018-01-07T05:57:59.642Z,4.30
2018-01-07T05:58:59.653Z,5.50
2018-01-07T05:59:59.674Z,4.40
2018-01-07T06:00:59.695Z,4.30
2018-01-07T06:01:59.710Z,5.00
2018-01-07T06:02:59.724Z,6.00
2018-01-07T06:03:59.741Z,3.80
2018-01-07T06:04:59.763Z,4.80
2018-01-07T06:05:59.785Z,6.40
2018-01-07T06:06:59.794Z,5.00
2018-01-07T06:07:59.834Z,4.50
2018-01-07T06:08:59.828Z,5.80
2018-01-07T06:09:59.846Z,6.90
2018-01-07T06:10:59.869Z,4.00
2018-01-07T06:11:59.886Z,5.80
2018-01-07T06:12:59.899Z,4.50
2018-01-07T06:13:59.914Z,6.90
2018-01-07T06:14:59.938Z,7.00
2018-01-07T06:15:59.956Z,3.80
2018-01-07T06:16:59.968Z,4.70
2018-01-07T06:17:59.985Z,4.80
2018-01-07T06:19:00.009Z,5.10
2018-01-07T06:20:00.033Z,4.00
2018-01-07T06:21:00.040Z,5.00
2018-01-07T06:22:00.056Z,3.30
2018-01-07T06:23:00.079Z,4.20
2018-01-07T06:24:00.100Z,4.00
2018-01-07T06:25:00.107Z,4.50
2018-01-07T06:26:00.130Z,3.00
2018-01-07T06:27:00.141Z,3.60
2018-01-07T06:28:00.169Z,3.10
2018-01-07T06:29:00.175Z,4.40
2018-01-07T06:30:00.203Z,3.30
2018-01-07T06:31:00.212Z,5.30
2018-01-07T06:32:00.234Z,2.50
2018-01-07T06:33:00.251Z,3.70
2018-01-07T06:34:00.268Z,5.40
2018-01-07T06:35:00.286Z,4.20
2018-01-07T06:36:00.304Z,6.00
2018-01-07T06:37:00.315Z,3.00
2018-01-07T06:38:00.331Z,3.10
2018-01-07T06:39:00.355Z,3.60
2018-01-07T06:40:00.367Z,2.80
2018-01-07T06:41:00.390Z,4.20
2018-01-07T06:42:00.401Z,4.00
2018-01-07T06:43:00.424Z,3.20
2018-01-07T06:44:00.437Z,4.20
2018-01-07T06:45:00.459Z,3.50
2018-01-07T06:46:00.469Z,3.40
2018-01-07T06:47:00.493Z,3.50
2018-01-07T06:48:00.509Z,2.70
2018-01-07T06:49:00.523Z,2.30
2018-01-07T06:50:00.544Z,7.00
2018-01-07T06:51:00.561Z,3.30
2018-01-07T06:52:00.573Z,3.60
2018-01-07T06:53:00.591Z,6.00
2018-01-07T06:54:00.606Z,2.60
2018-01-07T06:55:00.630Z,3.90
2018-01-07T06:56:00.640Z,5.80
2018-01-07T06:57:00.664Z,3.70
2018-01-07T06:58:00.680Z,3.20
2018-01-07T06:59:00.693Z,3.00
2018-01-07T07:00:00.710Z,4.10
2018-01-07T07:01:00.731Z,4.40
2018-01-07T07:02:00.750Z,4.30
2018-01-07T07:03:00.761Z,5.40
2018-01-07T07:04:00.784Z,4.70
2018-01-07T07:05:00.794Z,5.60
2018-01-07T07:06:00.817Z,3.30
2018-01-07T07:07:00.836Z,3.40
2018-01-07T07:08:00.846Z,3.80
2018-01-07T07:09:00.862Z,2.60
2018-01-07T07:10:00.880Z,4.50
2018-01-07T07:11:00.903Z,3.90
2018-01-07T07:12:00.922Z,4.00
2018-01-07T07:13:00.930Z,4.60
2018-01-07T07:14:00.948Z,4.50
2018-01-07T07:15:00.974Z,4.10
2018-01-07T07:16:00.988Z,3.30
2018-01-07T07:17:01.000Z,3.80
2018-01-07T07:18:01.017Z,3.50
2018-01-07T07:19:01.040Z,5.30
2018-01-07T07:20:01.058Z,3.30
2018-01-07T07:21:01.067Z,5.30
2018-01-07T07:22:01.085Z,4.10
2018-01-07T07:23:01.100Z,3.60
2018-01-07T07:24:01.118Z,4.40
2018-01-07T07:25:01.134Z,3.40
2018-01-07T07:26:01.157Z,3.30
2018-01-07T07:27:01.169Z,5.40
2018-01-07T07:28:01.191Z,4.30
2018-01-07T07:29:01.202Z,3.50
2018-01-07T07:30:01.226Z,3.60
2018-01-07T07:31:01.237Z,4.60
2018-01-07T07:32:01.259Z,3.80
2018-01-07T07:33:01.270Z,4.30
2018-01-07T07:34:01.292Z,4.50
2018-01-07T07:35:01.304Z,4.40
2018-01-07T07:36:01.322Z,4.70
2018-01-07T07:37:01.338Z,4.10
2018-01-07T07:38:01.354Z,3.80
2018-01-07T07:39:01.372Z,5.30
2018-01-07T07:40:01.389Z,3.70
2018-01-07T07:41:01.409Z,4.10
2018-01-07T07:42:01.427Z,5.00
2018-01-07T07:43:01.440Z,4.50
2018-01-07T07:44:01.457Z,4.50
2018-01-07T07:45:01.477Z,4.60
2018-01-07T07:46:01.487Z,3.60
2018-01-07T07:47:01.510Z,5.70
2018-01-07T07:48:01.523Z,5.60
2018-01-07T07:49:01.543Z,4.90
2018-01-07T07:50:01.554Z,4.30
2018-01-07T07:51:01.577Z,4.90
2018-01-07T07:52:01.594Z,4.60
2018-01-07T07:53:01.610Z,4.20
2018-01-07T07:54:01.627Z,3.70
2018-01-07T07:55:01.644Z,3.30
2018-01-07T07:56:01.670Z,5.70
2018-01-07T07:57:01.673Z,4.40
2018-01-07T07:58:01.689Z,4.70
2018-01-07T07:59:01.711Z,4.00
2018-01-07T08:00:01.746Z,4.70
2018-01-07T08:01:01.746Z,3.70
2018-01-07T08:02:01.762Z,4.50
2018-01-07T08:03:01.772Z,4.00
2018-01-07T08:04:01.793Z,4.00
2018-01-07T08:05:01.811Z,5.10
2018-01-07T08:06:01.827Z,4.90
2018-01-07T08:07:01.840Z,4.50
2018-01-07T08:08:01.857Z,5.20
2018-01-07T08:09:01.878Z,5.00
2018-01-07T08:10:01.890Z,5.10
2018-01-07T08:11:01.907Z,5.00
2018-01-07T08:12:01.929Z,5.10
2018-01-07T08:13:01.947Z,6.70
2018-01-07T08:14:01.961Z,5.00
2018-01-07T08:15:01.973Z,5.70
2018-01-07T08:16:01.996Z,5.30
2018-01-07T08:17:02.007Z,8.70
2018-01-07T08:18:02.023Z,7.60
2018-01-07T08:19:02.046Z,6.10
2018-01-07T08:20:02.063Z,5.10
2018-01-07T08:21:02.073Z,6.70
2018-01-07T08:22:02.090Z,5.00
2018-01-07T08:23:02.121Z,5.50
2018-01-07T08:24:02.129Z,6.00
2018-01-07T08:25:02.141Z,6.50
2018-01-07T08:26:02.163Z,5.00
2018-01-07T08:27:02.179Z,7.90
2018-01-07T08:28:02.192Z,5.30
2018-01-07T08:29:02.207Z,6.40
2018-01-07T08:30:02.224Z,5.30
2018-01-07T08:31:02.245Z,4.30
2018-01-07T08:32:02.257Z,4.80
2018-01-07T08:33:02.278Z,6.00
2018-01-07T08:34:02.295Z,4.10
2018-01-07T08:35:02.308Z,5.20
2018-01-07T08:36:02.327Z,5.60
2018-01-07T08:37:02.346Z,5.20
2018-01-07T08:38:02.363Z,4.50
2018-01-07T08:39:02.374Z,8.70
2018-01-07T08:40:02.390Z,5.50
2018-01-07T08:41:02.416Z,3.70
2018-01-07T08:42:02.429Z,6.50
2018-01-07T08:43:02.441Z,6.30
2018-01-07T08:44:02.459Z,3.60
2018-01-07T08:45:02.482Z,5.30
2018-01-07T08:46:02.498Z,4.90
2018-01-07T08:47:02.509Z,4.30
2018-01-07T08:48:02.537Z,4.40
2018-01-07T08:49:02.544Z,4.60
2018-01-07T08:50:02.564Z,4.10
2018-01-07T08:51:02.585Z,4.90
2018-01-07T08:52:02.601Z,5.20
2018-01-07T08:53:02.613Z,3.50
2018-01-07T08:54:02.631Z,5.60
2018-01-07T08:55:02.652Z,4.10
2018-01-07T08:56:02.672Z,4.80
2018-01-07T08:57:02.683Z,5.90
2018-01-07T08:58:02.698Z,6.10
2018-01-07T08:59:02.723Z,4.30
2018-01-07T09:00:02.742Z,5.30
2018-01-07T09:01:02.806Z,5.20
2018-01-07T09:02:02.767Z,4.10
2018-01-07T09:03:02.789Z,4.60
2018-01-07T09:04:02.801Z,5.20
2018-01-07T09:05:02.827Z,4.30
2018-01-07T09:06:02.835Z,4.90
2018-01-07T09:07:02.858Z,5.10
2018-01-07T09:08:02.871Z,5.40
2018-01-07T09:09:02.894Z,5.00
2018-01-07T09:10:02.905Z,4.30
2018-01-07T09:11:02.927Z,4.80
2018-01-07T09:12:02.940Z,6.30
2018-01-07T09:13:02.961Z,8.90
2018-01-07T09:14:02.974Z,6.10
2018-01-07T09:15:02.996Z,5.40
2018-01-07T09:16:03.015Z,5.20
2018-01-07T09:17:03.036Z,4.20
2018-01-07T09:18:03.042Z,5.10
2018-01-07T09:19:03.065Z,6.00
2018-01-07T09:20:03.084Z,4.90
2018-01-07T09:21:03.095Z,4.10
2018-01-07T09:22:03.117Z,4.20
2018-01-07T09:23:03.129Z,5.20
2018-01-07T09:24:03.152Z,4.40
2018-01-07T09:25:03.164Z,4.20
2018-01-07T09:26:03.185Z,4.50
2018-01-07T09:27:03.199Z,4.90
2018-01-07T09:28:03.223Z,4.50
2018-01-07T09:29:03.235Z,5.50
2018-01-07T09:30:03.258Z,3.90
2018-01-07T09:31:03.270Z,5.20
2018-01-07T09:32:03.295Z,4.90
2018-01-07T09:33:03.307Z,8.50
2018-01-07T09:34:03.328Z,3.40
2018-01-07T09:35:03.341Z,3.70
2018-01-07T09:36:03.365Z,4.40
2018-01-07T09:37:03.376Z,5.50
2018-01-07T09:38:03.393Z,6.90
2018-01-07T09:39:03.418Z,4.10
2018-01-07T09:40:03.435Z,4.00
2018-01-07T09:41:03.446Z,5.40
2018-01-07T09:42:03.464Z,3.60
2018-01-07T09:43:03.488Z,6.00
2018-01-07T09:44:03.502Z,4.40
2018-01-07T09:45:03.523Z,3.90
2018-01-07T09:46:03.542Z,4.00
2018-01-07T09:47:03.554Z,3.80
2018-01-07T09:48:03.570Z,3.80
2018-01-07T09:49:03.595Z,4.50
2018-01-07T09:50:03.613Z,3.20
2018-01-07T09:51:03.626Z,4.10
2018-01-07T09:52:03.644Z,6.10
2018-01-07T09:53:03.666Z,8.10
2018-01-07T09:54:03.679Z,9.50
2018-01-07T09:55:03.703Z,4.50
2018-01-07T09:56:03.715Z,4.10
2018-01-07T09:57:03.739Z,4.10
2018-01-07T09:58:03.751Z,3.90
2018-01-07T09:59:03.775Z,4.10
2018-01-07T10:00:03.794Z,4.30
2018-01-07T10:01:03.807Z,4.20
2018-01-07T10:02:03.827Z,3.20
2018-01-07T10:03:03.851Z,4.60
2018-01-07T10:04:03.870Z,4.30
2018-01-07T10:05:03.880Z,3.50
2018-01-07T10:06:03.899Z,5.10
2018-01-07T10:07:03.924Z,3.80
2018-01-07T10:08:03.944Z,5.30
2018-01-07T10:09:03.958Z,4.10
2018-01-07T10:10:03.981Z,4.50
2018-01-07T10:11:03.993Z,3.90
2018-01-07T10:12:04.019Z,4.40
2018-01-07T10:13:04.030Z,4.50
2018-01-07T10:14:04.106Z,4.10
2018-01-07T10:15:04.067Z,5.20
2018-01-07T10:16:04.087Z,4.20
2018-01-07T10:17:04.146Z,4.20
2018-01-07T10:18:04.123Z,4.40
2018-01-07T10:19:04.148Z,3.50
2018-01-07T10:20:04.162Z,5.10
2018-01-07T10:21:04.184Z,4.40
2018-01-07T10:22:04.198Z,3.90
2018-01-07T10:23:04.223Z,4.80
2018-01-07T10:24:04.242Z,5.00
2018-01-07T10:25:04.253Z,4.60
2018-01-07T10:26:04.272Z,4.00
2018-01-07T10:27:04.297Z,4.40
2018-01-07T10:28:04.316Z,3.40
2018-01-07T10:29:04.329Z,3.80
2018-01-07T10:30:04.350Z,3.60
2018-01-07T10:31:04.372Z,5.60
2018-01-07T10:32:04.392Z,5.10
2018-01-07T10:33:04.404Z,3.70
2018-01-07T10:34:04.431Z,4.00
2018-01-07T10:35:04.441Z,3.90
2018-01-07T10:36:04.466Z,4.90
2018-01-07T10:37:04.477Z,4.70
2018-01-07T10:38:04.503Z,4.40
2018-01-07T10:39:04.516Z,4.50
2018-01-07T10:40:04.542Z,4.30
2018-01-07T10:41:04.558Z,4.70
2018-01-07T10:42:04.570Z,5.20
2018-01-07T10:43:04.595Z,4.40
2018-01-07T10:44:04.617Z,5.20
2018-01-07T10:45:04.626Z,4.40
2018-01-07T10:46:04.645Z,4.90
2018-01-07T10:47:04.663Z,4.20
2018-01-07T10:48:04.685Z,8.90
2018-01-07T10:49:04.705Z,7.60
2018-01-07T10:50:04.726Z,5.40
2018-01-07T10:51:04.735Z,4.70
2018-01-07T10:52:04.755Z,4.10
2018-01-07T10:53:04.777Z,4.60
2018-01-07T10:54:04.796Z,4.60
2018-01-07T10:55:04.809Z,4.30
2018-01-07T10:56:04.828Z,4.20
2018-01-07T10:57:04.845Z,5.30
2018-01-07T10:58:04.869Z,4.30
2018-01-07T10:59:04.881Z,4.30
2018-01-07T11:00:04.901Z,5.10
2018-01-07T11:01:04.923Z,3.50
2018-01-07T11:02:04.941Z,4.30
2018-01-07T11:03:04.965Z,3.80
2018-01-07T11:04:04.978Z,3.70
2018-01-07T11:05:04.990Z,4.60
2018-01-07T11:06:05.009Z,3.60
2018-01-07T11:07:05.036Z,6.10
2018-01-07T11:08:05.050Z,3.90
2018-01-07T11:09:05.062Z,4.10
2018-01-07T11:10:05.081Z,5.00
2018-01-07T11:11:05.104Z,4.20
2018-01-07T11:12:05.117Z,4.10
2018-01-07T11:13:05.134Z,5.50
2018-01-07T11:14:05.152Z,4.30
2018-01-07T11:15:05.177Z,3.90
2018-01-07T11:16:05.190Z,5.10
2018-01-07T11:17:05.212Z,5.10
2018-01-07T11:18:05.226Z,4.90
2018-01-07T11:19:05.243Z,4.70
2018-01-07T11:20:05.270Z,4.40
2018-01-07T11:21:05.280Z,4.10
2018-01-07T11:22:05.303Z,4.40
2018-01-07T11:23:05.315Z,5.90
2018-01-07T11:24:05.340Z,4.70
2018-01-07T11:25:05.353Z,5.30
2018-01-07T11:26:05.376Z,6.60
2018-01-07T11:27:05.393Z,4.40
2018-01-07T11:28:05.408Z,5.10
2018-01-07T11:29:05.437Z,4.30
2018-01-07T11:30:05.451Z,4.80
2018-01-07T11:31:05.462Z,5.30
2018-01-07T11:32:05.487Z,5.70
2018-01-07T11:33:05.504Z,4.70
2018-01-07T11:34:05.522Z,5.10
2018-01-07T11:35:05.542Z,3.80
2018-01-07T11:36:05.554Z,4.40
2018-01-07T11:37:05.577Z,4.20
2018-01-07T11:38:05.592Z,5.10
2018-01-07T11:39:05.614Z,4.30
2018-01-07T11:40:05.628Z,4.00
2018-01-07T11:41:05.650Z,4.30
2018-01-07T11:42:05.664Z,4.60
2018-01-07T11:43:05.687Z,8.50
2018-01-07T11:44:05.701Z,5.70
2018-01-07T11:45:05.718Z,4.00
2018-01-07T11:46:05.742Z,4.30
2018-01-07T11:47:05.755Z,5.30
2018-01-07T11:48:05.783Z,3.50
2018-01-07T11:49:05.796Z,4.30
2018-01-07T11:50:05.814Z,5.80
2018-01-07T11:51:05.833Z,4.10
2018-01-07T11:52:05.854Z,4.80
2018-01-07T11:53:05.871Z,3.80
2018-01-07T11:54:05.887Z,3.90
2018-01-07T11:55:05.900Z,4.60
2018-01-07T11:56:05.918Z,3.90
2018-01-07T11:57:05.941Z,4.80
2018-01-07T11:58:05.960Z,4.20
2018-01-07T11:59:05.973Z,3.80
2018-01-07T12:00:05.990Z,5.40
2018-01-07T12:01:06.009Z,5.30
2018-01-07T12:02:06.044Z,4.20
2018-01-07T12:03:06.051Z,4.40
2018-01-07T12:04:06.062Z,4.20
2018-01-07T12:05:06.084Z,4.20
2018-01-07T12:06:06.105Z,4.80
2018-01-07T12:07:06.116Z,4.70
2018-01-07T12:08:06.140Z,5.80
2018-01-07T12:09:06.151Z,4.30
2018-01-07T12:10:06.172Z,3.70
2018-01-07T12:11:06.193Z,3.50
2018-01-07T12:12:06.212Z,4.10
2018-01-07T12:13:06.222Z,4.60
2018-01-07T12:14:06.241Z,3.80
2018-01-07T12:15:06.265Z,4.40
2018-01-07T12:16:06.276Z,4.00
2018-01-07T12:17:06.300Z,4.00
2018-01-07T12:18:06.318Z,4.60
2018-01-07T12:19:06.337Z,4.50
2018-01-07T12:20:06.355Z,4.70
2018-01-07T12:21:06.371Z,4.20
2018-01-07T12:22:06.392Z,4.30
2018-01-07T12:23:06.408Z,5.30
2018-01-07T12:24:06.428Z,3.70
2018-01-07T12:25:06.440Z,4.30
2018-01-07T12:26:06.464Z,3.80
2018-01-07T12:27:06.477Z,3.70
2018-01-07T12:28:06.504Z,4.50
2018-01-07T12:29:06.516Z,3.40
2018-01-07T12:30:06.541Z,3.30
2018-01-07T12:31:06.558Z,4.70
2018-01-07T12:32:06.583Z,3.60
2018-01-07T12:33:06.595Z,3.30
2018-01-07T12:34:06.621Z,3.90
2018-01-07T12:35:06.647Z,3.40
2018-01-07T12:36:06.658Z,4.70
2018-01-07T12:37:06.679Z,12.00
2018-01-07T12:38:06.699Z,4.50
2018-01-07T12:39:06.727Z,3.20
2018-01-07T12:40:06.746Z,3.40
2018-01-07T12:41:06.771Z,3.30
2018-01-07T12:42:06.788Z,3.30
2018-01-07T12:43:06.815Z,3.80
2018-01-07T12:44:06.859Z,3.70
2018-01-07T12:45:06.859Z,3.30
2018-01-07T12:46:06.878Z,3.50
2018-01-07T12:47:06.905Z,4.00
2018-01-07T12:48:06.927Z,3.50
2018-01-07T12:49:06.948Z,3.70
2018-01-07T12:50:06.976Z,3.30
2018-01-07T12:51:06.992Z,3.60
2018-01-07T12:52:07.020Z,4.50
2018-01-07T12:53:07.037Z,3.10
2018-01-07T12:54:07.068Z,4.50
2018-01-07T12:55:07.086Z,4.10
2018-01-07T12:56:07.108Z,3.70
2018-01-07T12:57:07.138Z,3.20
2018-01-07T12:58:07.155Z,3.10
2018-01-07T12:59:07.185Z,3.70
2018-01-07T13:00:07.202Z,3.80
2018-01-07T13:01:07.230Z,3.00
2018-01-07T13:02:07.249Z,3.20
2018-01-07T13:03:07.279Z,3.60
2018-01-07T13:04:07.302Z,3.40
2018-01-07T13:05:07.320Z,5.20
2018-01-07T13:06:07.344Z,3.20
2018-01-07T13:07:07.372Z,3.30
2018-01-07T13:08:07.396Z,5.80
2018-01-07T13:09:07.414Z,3.30
2018-01-07T13:10:07.438Z,3.50
2018-01-07T13:11:07.467Z,3.20
2018-01-07T13:12:07.492Z,3.30
2018-01-07T13:13:07.508Z,5.20
2018-01-07T13:14:07.536Z,4.60